createdAt,value
2023-04-25T00:00:07.953Z,100.00
2023-04-25T00:02:40.317Z,100.00
2023-04-25T00:05:10.698Z,100.00
2023-04-25T00:07:38.889Z,100.00
2023-04-25T00:10:08.922Z,100.00
2023-04-25T00:12:36.971Z,100.00
2023-04-25T00:15:05.465Z,100.00
2023-04-25T00:17:33.584Z,100.00
2023-04-25T00:20:01.939Z,100.00
2023-04-25T00:22:31.943Z,100.00
2023-04-25T00:25:01.354Z,100.00
2023-04-25T00:27:29.460Z,100.00
2023-04-25T00:29:57.851Z,100.00
2023-04-25T00:32:26.084Z,100.00
2023-04-25T00:34:54.202Z,100.00
2023-04-25T00:37:22.539Z,100.00
2023-04-25T00:39:52.015Z,100.00
2023-04-25T00:42:20.087Z,100.00
2023-04-25T00:44:49.134Z,100.00
2023-04-25T00:47:17.265Z,100.00
2023-04-25T00:49:45.819Z,100.00
2023-04-25T00:52:14.330Z,100.00
2023-04-25T00:54:42.426Z,100.00
2023-04-25T00:57:11.921Z,100.00
2023-04-25T00:59:39.952Z,100.00
2023-04-25T01:02:08.348Z,100.00
2023-04-25T01:04:36.708Z,100.00
2023-04-25T01:07:04.908Z,100.00
2023-04-25T01:09:33.116Z,100.00
2023-04-25T01:12:02.150Z,100.00
2023-04-25T01:14:31.715Z,100.00
2023-04-25T01:17:00.181Z,100.00
2023-04-25T01:19:28.427Z,100.00
2023-04-25T01:21:57.907Z,100.00
2023-04-25T01:24:26.905Z,100.00
2023-04-25T01:26:57.266Z,100.00
2023-04-25T01:29:26.467Z,100.00
2023-04-25T01:31:55.311Z,100.00
2023-04-25T01:34:23.521Z,100.00
2023-04-25T01:36:51.838Z,100.00
2023-04-25T01:39:21.355Z,100.00
2023-04-25T01:41:49.877Z,100.00
2023-04-25T01:44:18.432Z,100.00
2023-04-25T01:46:46.630Z,100.00
2023-04-25T01:49:14.708Z,100.00
2023-04-25T01:51:45.060Z,100.00
2023-04-25T01:54:13.448Z,100.00
2023-04-25T01:56:42.896Z,100.00
2023-04-25T01:59:13.026Z,100.00
2023-04-25T02:01:59.636Z,100.00
2023-04-25T02:04:32.697Z,100.00
2023-04-25T02:07:01.257Z,100.00
2023-04-25T02:09:38.367Z,100.00
2023-04-25T02:12:11.836Z,100.00
2023-04-25T02:15:07.283Z,100.00
2023-04-25T02:17:40.654Z,100.00
2023-04-25T02:20:09.449Z,100.00
2023-04-25T02:22:37.767Z,100.00
2023-04-25T02:25:09.128Z,100.00
2023-04-25T02:27:39.315Z,100.00
2023-04-25T02:30:10.165Z,100.00
2023-04-25T02:32:38.661Z,100.00
2023-04-25T02:35:07.664Z,100.00
2023-04-25T02:37:36.229Z,100.00
2023-04-25T02:40:05.166Z,100.00
2023-04-25T02:42:33.578Z,100.00
2023-04-25T02:45:03.335Z,100.00
2023-04-25T02:47:31.770Z,100.00
2023-04-25T02:49:59.921Z,100.00
2023-04-25T02:52:28.834Z,100.00
2023-04-25T02:55:05.058Z,100.00
2023-04-25T02:57:34.675Z,100.00
2023-04-25T03:00:06.541Z,100.00
2023-04-25T03:02:34.742Z,100.00
2023-04-25T03:05:04.267Z,100.00
2023-04-25T03:07:33.246Z,100.00
2023-04-25T03:10:01.351Z,100.00
2023-04-25T03:12:31.907Z,100.00
2023-04-25T03:15:00.117Z,100.00
2023-04-25T03:17:29.740Z,100.00
2023-04-25T03:19:59.689Z,100.00
2023-04-25T03:22:27.784Z,100.00
2023-04-25T03:24:55.900Z,100.00
2023-04-25T03:27:24.023Z,100.00
2023-04-25T03:29:53.164Z,100.00
2023-04-25T03:32:21.931Z,100.00
2023-04-25T03:34:53.035Z,100.00
2023-04-25T03:37:21.176Z,100.00
2023-04-25T03:39:49.216Z,100.00
2023-04-25T03:42:17.934Z,100.00
2023-04-25T03:44:46.838Z,100.00
2023-04-25T03:47:16.142Z,100.00
2023-04-25T03:49:44.264Z,100.00
2023-04-25T03:52:13.797Z,100.00
2023-04-25T03:54:42.697Z,100.00
2023-04-25T03:57:17.448Z,100.00
2023-04-25T03:59:46.190Z,100.00
2023-04-25T04:02:16.197Z,100.00
2023-04-25T04:04:45.777Z,100.00
2023-04-25T04:07:15.982Z,100.00
2023-04-25T04:09:47.612Z,100.00
2023-04-25T04:12:21.889Z,100.00
2023-04-25T04:14:50.355Z,100.00
2023-04-25T04:17:18.573Z,100.00
2023-04-25T04:19:46.899Z,100.00
2023-04-25T04:22:21.875Z,100.00
2023-04-25T04:24:51.026Z,100.00
2023-04-25T04:27:25.084Z,100.00
2023-04-25T04:30:09.417Z,100.00
2023-04-25T04:32:53.705Z,100.00
2023-04-25T04:35:22.974Z,100.00
2023-04-25T04:37:52.464Z,100.00
2023-04-25T04:40:22.860Z,100.00
2023-04-25T04:42:57.513Z,100.00
2023-04-25T04:45:41.481Z,100.00
2023-04-25T04:48:29.219Z,100.00
2023-04-25T04:51:15.819Z,100.00
2023-04-25T04:53:59.458Z,100.00
2023-04-25T04:56:53.488Z,100.00
2023-04-25T04:59:48.175Z,100.00
2023-04-25T05:02:40.183Z,100.00
2023-04-25T05:05:28.713Z,100.00
2023-04-25T05:08:15.449Z,100.00
2023-04-25T05:10:57.295Z,100.00
2023-04-25T05:13:36.723Z,100.00
2023-04-25T05:16:21.238Z,100.00
2023-04-25T05:18:54.804Z,100.00
2023-04-25T05:21:44.180Z,100.00
2023-04-25T05:24:26.274Z,100.00
2023-04-25T05:27:14.512Z,100.00
2023-04-25T05:30:01.396Z,100.00
2023-04-25T05:32:49.477Z,100.00
2023-04-25T05:35:18.345Z,100.00
2023-04-25T05:37:49.514Z,100.00
2023-04-25T05:40:17.926Z,100.00
2023-04-25T05:42:47.350Z,100.00
2023-04-25T05:45:34.006Z,100.00
2023-04-25T05:48:37.894Z,100.00
2023-04-25T05:51:19.805Z,100.00
2023-04-25T05:54:06.584Z,100.00
2023-04-25T05:56:35.951Z,100.00
2023-04-25T05:59:05.516Z,100.00
2023-04-25T06:01:34.016Z,100.00
2023-04-25T06:04:03.007Z,100.00
2023-04-25T06:06:31.555Z,100.00
2023-04-25T06:09:01.464Z,100.00
2023-04-25T06:11:29.542Z,100.00
2023-04-25T06:13:58.026Z,100.00
2023-04-25T06:16:28.114Z,100.00
2023-04-25T06:18:56.209Z,100.00
2023-04-25T06:21:24.430Z,100.00
2023-04-25T06:23:53.568Z,100.00
2023-04-25T06:26:25.549Z,100.00
2023-04-25T06:28:54.147Z,100.00
2023-04-25T06:31:22.380Z,100.00
2023-04-25T06:33:55.863Z,100.00
2023-04-25T06:36:28.717Z,100.00
2023-04-25T06:39:03.315Z,100.00
2023-04-25T06:41:31.787Z,100.00
2023-04-25T06:44:03.364Z,100.00
2023-04-25T06:46:35.339Z,100.00
2023-04-25T06:49:04.960Z,100.00
2023-04-25T06:51:33.087Z,100.00
2023-04-25T06:54:01.522Z,100.00
2023-04-25T06:56:36.411Z,100.00
2023-04-25T06:59:10.143Z,100.00
2023-04-25T07:01:40.175Z,100.00
2023-04-25T07:04:15.406Z,100.00
2023-04-25T07:06:50.417Z,100.00
2023-04-25T07:09:22.926Z,100.00
2023-04-25T07:11:52.214Z,100.00
2023-04-25T07:14:20.237Z,100.00
2023-04-25T07:16:48.395Z,100.00
2023-04-25T07:19:18.304Z,100.00
2023-04-25T07:21:47.205Z,100.00
2023-04-25T07:24:15.291Z,100.00
2023-04-25T07:26:47.534Z,100.00
2023-04-25T07:29:44.756Z,100.00
2023-04-25T07:32:14.587Z,100.00
2023-04-25T07:34:45.981Z,100.00
2023-04-25T07:37:15.098Z,100.00
2023-04-25T07:39:57.958Z,100.00
2023-04-25T07:42:26.141Z,100.00
2023-04-25T07:44:54.293Z,100.00
2023-04-25T07:47:22.531Z,100.00
2023-04-25T07:49:53.395Z,100.00
2023-04-25T07:52:22.650Z,100.00
2023-04-25T07:54:55.997Z,100.00
2023-04-25T07:57:31.845Z,100.00
2023-04-25T08:00:00.143Z,100.00
2023-04-25T08:02:30.696Z,100.00
2023-04-25T08:05:00.735Z,100.00
2023-04-25T08:07:29.142Z,100.00
2023-04-25T08:10:02.214Z,100.00
2023-04-25T08:12:34.816Z,100.00
2023-04-25T08:15:03.582Z,100.00
2023-04-25T08:17:36.332Z,100.00
2023-04-25T08:20:07.441Z,100.00
2023-04-25T08:22:36.583Z,100.00
2023-04-25T08:25:33.861Z,100.00
2023-04-25T08:28:03.902Z,100.00
2023-04-25T08:30:33.129Z,100.00
2023-04-25T08:33:01.629Z,100.00
2023-04-25T08:36:00.518Z,100.00
2023-04-25T08:38:29.563Z,100.00
2023-04-25T08:40:57.803Z,100.00
2023-04-25T08:43:26.734Z,100.00
2023-04-25T08:45:55.206Z,100.00
2023-04-25T08:48:37.916Z,100.00
2023-04-25T08:53:38.612Z,100.00
2023-04-25T08:56:07.706Z,100.00
2023-04-25T08:58:38.001Z,100.00
2023-04-25T09:01:06.355Z,100.00
2023-04-25T09:03:42.449Z,100.00
2023-04-25T09:06:12.657Z,100.00
2023-04-25T09:08:41.613Z,99.76
2023-04-25T09:11:10.599Z,97.40
2023-04-25T09:13:38.783Z,97.10
2023-04-25T09:16:28.706Z,97.73
2023-04-25T09:19:38.133Z,97.61
2023-04-25T09:22:09.844Z,96.89
2023-04-25T09:24:39.739Z,98.01
2023-04-25T09:27:08.928Z,98.66
2023-04-25T09:29:38.773Z,97.12
2023-04-25T09:32:14.062Z,96.48
2023-04-25T09:34:43.167Z,95.35
2023-04-25T09:37:13.038Z,95.87
2023-04-25T09:40:04.007Z,94.40
2023-04-25T09:42:35.594Z,95.35
2023-04-25T09:45:03.996Z,95.42
2023-04-25T09:47:39.028Z,96.01
2023-04-25T09:50:16.103Z,96.09
2023-04-25T09:52:48.354Z,96.62
2023-04-25T09:55:24.022Z,96.05
2023-04-25T09:57:52.302Z,95.29
2023-04-25T10:00:22.364Z,94.98
2023-04-25T10:02:50.490Z,94.14
2023-04-25T10:05:38.804Z,95.69
2023-04-25T10:08:09.757Z,94.66
2023-04-25T10:10:39.539Z,94.74
2023-04-25T10:13:08.660Z,94.91
2023-04-25T10:15:39.866Z,96.24
2023-04-25T10:18:08.899Z,96.28
2023-04-25T10:20:37.498Z,96.77
2023-04-25T10:23:09.072Z,97.12
2023-04-25T10:25:37.156Z,97.38
2023-04-25T10:28:06.214Z,98.08
2023-04-25T10:30:34.516Z,98.53
2023-04-25T10:33:03.227Z,97.41
2023-04-25T10:35:32.675Z,97.24
2023-04-25T10:38:05.804Z,97.95
2023-04-25T10:40:35.512Z,99.21
2023-04-25T10:43:43.350Z,100.00
2023-04-25T10:46:21.162Z,100.00
2023-04-25T10:48:51.052Z,100.00
2023-04-25T10:51:23.079Z,100.00
2023-04-25T10:54:01.454Z,100.00
2023-04-25T10:56:32.164Z,99.60
2023-04-25T10:59:11.199Z,99.10
2023-04-25T11:01:43.258Z,97.19
2023-04-25T11:04:24.342Z,96.45
2023-04-25T11:07:12.652Z,96.61
2023-04-25T11:09:41.480Z,93.97
2023-04-25T11:12:12.750Z,96.27
2023-04-25T11:14:41.792Z,94.67
2023-04-25T11:17:10.169Z,94.00
2023-04-25T11:19:38.375Z,93.03
2023-04-25T11:22:07.832Z,93.51
2023-04-25T11:24:36.537Z,94.02
2023-04-25T11:27:05.067Z,94.37
2023-04-25T11:29:36.047Z,94.81
2023-04-25T11:32:04.353Z,97.06
2023-04-25T11:34:33.798Z,97.48
2023-04-25T11:37:02.853Z,95.82
2023-04-25T11:39:31.288Z,96.67
2023-04-25T11:42:01.198Z,96.56
2023-04-25T11:44:29.808Z,96.21
2023-04-25T11:46:59.304Z,95.75
2023-04-25T11:49:27.426Z,95.25
2023-04-25T11:51:55.945Z,95.05
2023-04-25T11:54:24.300Z,93.94
2023-04-25T11:56:52.931Z,94.42
2023-04-25T11:59:20.978Z,95.27
2023-04-25T12:01:50.834Z,95.05
2023-04-25T12:04:21.560Z,95.52
2023-04-25T12:06:50.839Z,94.50
2023-04-25T12:09:20.225Z,94.47
2023-04-25T12:11:48.950Z,95.00
2023-04-25T12:14:23.082Z,92.91
2023-04-25T12:16:52.295Z,90.77
2023-04-25T12:19:22.286Z,90.77
2023-04-25T12:21:58.046Z,92.95
2023-04-25T12:24:28.970Z,92.23
2023-04-25T12:27:01.952Z,93.03
2023-04-25T12:29:34.795Z,92.44
2023-04-25T12:32:10.490Z,91.53
2023-04-25T12:34:40.188Z,90.76
2023-04-25T12:37:08.667Z,90.78
2023-04-25T12:39:36.800Z,91.33
2023-04-25T12:42:07.763Z,91.85
2023-04-25T12:44:37.589Z,91.13
2023-04-25T12:47:06.485Z,90.13
2023-04-25T12:49:35.306Z,89.06
2023-04-25T12:52:04.873Z,90.01
2023-04-25T12:54:33.141Z,88.49
2023-04-25T12:57:03.902Z,89.07
2023-04-25T12:59:32.313Z,86.67
2023-04-25T13:02:00.463Z,85.98
2023-04-25T13:04:29.439Z,86.69
2023-04-25T13:06:57.610Z,86.83
2023-04-25T13:09:27.123Z,86.61
2023-04-25T13:11:57.240Z,86.50
2023-04-25T13:14:27.308Z,86.30
2023-04-25T13:16:56.118Z,85.83
2023-04-25T13:19:24.247Z,86.43
2023-04-25T13:21:52.452Z,83.35
2023-04-25T13:24:20.521Z,83.22
2023-04-25T13:26:50.227Z,85.43
2023-04-25T13:29:18.266Z,85.52
2023-04-25T13:31:46.872Z,85.98
2023-04-25T13:34:14.953Z,84.75
2023-04-25T13:36:43.095Z,80.96
2023-04-25T13:39:13.268Z,82.85
2023-04-25T13:41:41.480Z,80.49
2023-04-25T13:44:11.499Z,79.23
2023-04-25T13:46:46.974Z,81.23
2023-04-25T13:49:16.551Z,80.74
2023-04-25T13:51:44.770Z,81.10
2023-04-25T13:54:12.904Z,79.94
2023-04-25T13:56:43.134Z,79.50
2023-04-25T13:59:13.601Z,80.37
2023-04-25T14:01:41.926Z,78.19
2023-04-25T14:04:10.041Z,77.54
2023-04-25T14:06:38.599Z,75.88
2023-04-25T14:09:07.967Z,74.70
2023-04-25T14:11:36.238Z,75.42
2023-04-25T14:14:05.091Z,74.65
2023-04-25T14:16:34.775Z,73.39
2023-04-25T14:19:03.024Z,73.27
2023-04-25T14:21:32.747Z,73.94
2023-04-25T14:24:00.898Z,72.87
2023-04-25T14:26:28.975Z,74.21
2023-04-25T14:28:57.528Z,73.29
2023-04-25T14:31:25.666Z,70.88
2023-04-25T14:33:57.692Z,71.92
2023-04-25T14:36:28.417Z,70.98
2023-04-25T14:38:56.520Z,68.78
2023-04-25T14:41:25.188Z,68.11
2023-04-25T14:43:53.908Z,68.22
2023-04-25T14:46:23.224Z,69.36
2023-04-25T14:48:51.445Z,65.58
2023-04-25T14:51:21.197Z,65.78
2023-04-25T14:53:49.941Z,66.73
2023-04-25T14:56:18.246Z,68.86
2023-04-25T14:58:46.490Z,70.30
2023-04-25T15:01:15.098Z,71.06
2023-04-25T15:03:43.797Z,72.11
2023-04-25T15:06:12.134Z,72.29
2023-04-25T15:08:41.987Z,73.23
2023-04-25T15:11:10.066Z,71.89
2023-04-25T15:13:38.081Z,72.08
2023-04-25T15:16:07.143Z,72.70
2023-04-25T15:18:35.257Z,72.81
2023-04-25T15:21:03.428Z,72.83
2023-04-25T15:23:31.530Z,72.18
2023-04-25T15:26:00.986Z,71.25
2023-04-25T15:28:29.127Z,71.00
2023-04-25T15:30:57.257Z,70.72
2023-04-25T15:33:25.328Z,69.94
2023-04-25T15:35:53.671Z,68.48
2023-04-25T15:38:21.864Z,68.11
2023-04-25T15:40:50.056Z,69.83
2023-04-25T15:43:19.668Z,67.89
2023-04-25T15:45:47.709Z,68.70
2023-04-25T15:48:16.386Z,68.46
2023-04-25T15:50:44.464Z,67.44
2023-04-25T15:53:12.581Z,68.22
2023-04-25T15:55:40.849Z,66.85
2023-04-25T15:58:11.380Z,68.20
2023-04-25T16:00:42.784Z,68.66
2023-04-25T16:03:11.572Z,69.33
2023-04-25T16:05:39.749Z,66.98
2023-04-25T16:08:08.270Z,68.08
2023-04-25T16:10:36.679Z,66.56
2023-04-25T16:13:04.742Z,66.64
2023-04-25T16:15:35.324Z,66.59
2023-04-25T16:18:05.592Z,65.49
2023-04-25T16:20:34.050Z,65.19
2023-04-25T16:23:02.145Z,64.93
2023-04-25T16:25:30.208Z,65.15
2023-04-25T16:27:58.751Z,65.46
2023-04-25T16:30:27.052Z,64.98
2023-04-25T16:32:57.484Z,63.67
2023-04-25T16:35:30.499Z,64.42
2023-04-25T16:37:58.566Z,64.46
2023-04-25T16:40:26.713Z,64.59
2023-04-25T16:42:55.115Z,65.38
2023-04-25T16:45:24.374Z,66.49
2023-04-25T16:47:52.501Z,66.46
2023-04-25T16:50:20.718Z,67.17
2023-04-25T16:52:51.133Z,67.31
2023-04-25T16:55:19.730Z,67.61
2023-04-25T16:57:47.873Z,67.04
2023-04-25T17:00:18.271Z,64.50
2023-04-25T17:02:47.306Z,65.00
2023-04-25T17:05:15.974Z,65.00
2023-04-25T17:07:44.087Z,65.51
2023-04-25T17:10:14.026Z,65.58
2023-04-25T17:12:42.368Z,65.80
2023-04-25T17:15:11.630Z,65.06
2023-04-25T17:17:39.695Z,65.80
2023-04-25T17:20:09.994Z,66.21
2023-04-25T17:22:38.698Z,65.84
2023-04-25T17:25:08.196Z,65.66
2023-04-25T17:27:37.758Z,65.59
2023-04-25T17:30:07.202Z,66.04
2023-04-25T17:32:35.655Z,66.98
2023-04-25T17:35:04.165Z,66.25
2023-04-25T17:37:32.761Z,65.31
2023-04-25T17:40:00.817Z,65.68
2023-04-25T17:42:29.260Z,66.19
2023-04-25T17:44:58.737Z,65.77
2023-04-25T17:47:26.929Z,66.74
2023-04-25T17:49:56.576Z,68.23
2023-04-25T17:52:25.759Z,68.20
2023-04-25T17:54:53.883Z,68.07
2023-04-25T17:57:24.381Z,68.91
2023-04-25T17:59:52.664Z,70.86
2023-04-25T18:02:22.710Z,71.26
2023-04-25T18:04:51.519Z,70.14
2023-04-25T18:07:19.692Z,70.84
2023-04-25T18:09:47.845Z,72.17
2023-04-25T18:12:16.788Z,69.96
2023-04-25T18:14:45.906Z,71.82
2023-04-25T18:17:14.642Z,74.59
2023-04-25T18:19:44.849Z,75.20
2023-04-25T18:22:13.224Z,76.62
2023-04-25T18:24:41.336Z,77.08
2023-04-25T18:27:10.194Z,77.07
2023-04-25T18:29:38.606Z,78.66
2023-04-25T18:32:07.376Z,80.03
2023-04-25T18:34:35.595Z,81.17
2023-04-25T18:37:05.335Z,82.06
2023-04-25T18:39:33.434Z,83.42
2023-04-25T18:42:06.472Z,83.46
2023-04-25T18:44:39.748Z,83.62
2023-04-25T18:47:08.438Z,84.16
2023-04-25T18:49:37.573Z,84.33
2023-04-25T18:52:08.664Z,84.70
2023-04-25T18:54:37.094Z,84.70
2023-04-25T18:57:06.318Z,85.23
2023-04-25T18:59:34.850Z,86.20
2023-04-25T19:02:05.352Z,87.54
2023-04-25T19:04:34.139Z,87.56
2023-04-25T19:07:02.660Z,88.08
2023-04-25T19:09:32.571Z,88.54
2023-04-25T19:12:02.531Z,89.10
2023-04-25T19:14:32.313Z,89.03
2023-04-25T19:17:00.728Z,89.26
2023-04-25T19:19:29.279Z,89.96
2023-04-25T19:21:57.398Z,90.92
2023-04-25T19:24:25.610Z,91.07
2023-04-25T19:26:55.932Z,90.30
2023-04-25T19:29:24.131Z,91.12
2023-04-25T19:31:52.256Z,92.19
2023-04-25T19:34:20.497Z,91.24
2023-04-25T19:36:48.947Z,91.76
2023-04-25T19:39:17.455Z,91.97
2023-04-25T19:41:46.619Z,92.78
2023-04-25T19:44:16.212Z,93.28
2023-04-25T19:46:46.574Z,92.86
2023-04-25T19:49:14.822Z,93.08
2023-04-25T19:51:43.562Z,93.74
2023-04-25T19:54:11.695Z,94.33
2023-04-25T19:56:39.817Z,94.27
2023-04-25T19:59:07.961Z,95.20
2023-04-25T20:01:38.512Z,95.76
2023-04-25T20:04:06.816Z,95.01
2023-04-25T20:06:35.698Z,95.04
2023-04-25T20:09:04.011Z,94.97
2023-04-25T20:11:32.331Z,94.99
2023-04-25T20:14:00.708Z,95.12
2023-04-25T20:16:28.866Z,95.38
2023-04-25T20:18:58.887Z,95.55
2023-04-25T20:21:27.435Z,95.42
2023-04-25T20:23:55.490Z,95.93
2023-04-25T20:26:25.873Z,95.87
2023-04-25T20:28:54.166Z,96.01
2023-04-25T20:31:22.448Z,95.98
2023-04-25T20:33:50.876Z,97.05
2023-04-25T20:36:20.646Z,97.03
2023-04-25T20:38:48.773Z,97.42
2023-04-25T20:41:16.981Z,97.58
2023-04-25T20:43:46.064Z,97.54
2023-04-25T20:46:14.220Z,97.78
2023-04-25T20:48:42.849Z,98.35
2023-04-25T20:51:11.966Z,98.49
2023-04-25T20:53:41.485Z,98.58
2023-04-25T20:56:10.911Z,99.21
2023-04-25T20:58:38.985Z,99.27
2023-04-25T21:01:08.219Z,99.07
2023-04-25T21:03:36.792Z,99.74
2023-04-25T21:06:05.233Z,100.00
2023-04-25T21:08:33.286Z,100.00
2023-04-25T21:11:02.722Z,100.00
2023-04-25T21:13:30.845Z,100.00
2023-04-25T21:15:59.333Z,100.00
2023-04-25T21:18:27.747Z,100.00
2023-04-25T21:20:55.801Z,100.00
2023-04-25T21:23:23.961Z,100.00
2023-04-25T21:25:54.049Z,100.00
2023-04-25T21:28:25.093Z,100.00
2023-04-25T21:30:53.278Z,100.00
2023-04-25T21:33:21.367Z,100.00
2023-04-25T21:35:49.443Z,100.00
2023-04-25T21:38:17.542Z,100.00
2023-04-25T21:40:45.950Z,100.00
2023-04-25T21:43:14.397Z,100.00
2023-04-25T21:46:06.364Z,100.00
2023-04-25T21:48:31.979Z,100.00
2023-04-25T21:51:00.041Z,100.00
2023-04-25T21:53:28.142Z,100.00
2023-04-25T21:55:56.709Z,100.00
2023-04-25T21:58:27.497Z,100.00
2023-04-25T22:00:57.806Z,100.00
2023-04-25T22:03:26.267Z,100.00
2023-04-25T22:05:54.540Z,100.00
2023-04-25T22:08:23.204Z,100.00
2023-04-25T22:10:51.272Z,100.00
2023-04-25T22:13:20.324Z,100.00
2023-04-25T22:15:48.871Z,100.00
2023-04-25T22:18:19.773Z,100.00
2023-04-25T22:20:48.194Z,99.80
2023-04-25T22:23:17.098Z,99.04
2023-04-25T22:25:45.228Z,98.31
2023-04-25T22:28:13.346Z,97.08
2023-04-25T22:30:41.489Z,95.52
2023-04-25T22:33:09.673Z,95.67
2023-04-25T22:35:40.316Z,96.48
2023-04-25T22:38:08.663Z,96.77
2023-04-25T22:40:36.853Z,96.99
2023-04-25T22:43:05.348Z,97.38
2023-04-25T22:45:34.474Z,97.00
2023-04-25T22:48:02.586Z,97.13
2023-04-25T22:50:31.110Z,97.87
2023-04-25T22:53:00.714Z,98.18
2023-04-25T22:55:28.824Z,98.61
2023-04-25T22:57:56.930Z,99.16
2023-04-25T23:00:26.317Z,99.34
2023-04-25T23:02:55.096Z,99.74
2023-04-25T23:05:24.526Z,99.00
2023-04-25T23:07:52.708Z,100.00
2023-04-25T23:10:22.503Z,99.95
2023-04-25T23:12:50.585Z,100.00
2023-04-25T23:15:19.803Z,100.00
2023-04-25T23:17:48.347Z,100.00
2023-04-25T23:20:16.637Z,100.00
2023-04-25T23:22:44.691Z,100.00
2023-04-25T23:25:13.050Z,100.00
2023-04-25T23:27:43.143Z,100.00
2023-04-25T23:30:11.771Z,100.00
2023-04-25T23:32:40.345Z,100.00
2023-04-25T23:35:09.069Z,100.00
2023-04-25T23:37:37.380Z,100.00
2023-04-25T23:40:08.596Z,100.00
2023-04-25T23:42:36.756Z,100.00
2023-04-25T23:45:08.617Z,100.00
2023-04-25T23:47:37.560Z,100.00
2023-04-25T23:50:06.519Z,100.00
2023-04-25T23:52:34.593Z,100.00
2023-04-25T23:55:05.428Z,100.00
2023-04-25T23:57:33.574Z,100.00
